createdAt,value
2022-07-30T00:02:00.108Z,101555.59
2022-07-30T00:05:09.838Z,101556.44
2022-07-30T00:08:10.530Z,101557.16
2022-07-30T00:11:19.625Z,101555.22
2022-07-30T00:14:22.501Z,101552.66
2022-07-30T00:17:31.261Z,101551.81
2022-07-30T00:20:47.049Z,101555.28
2022-07-30T00:24:01.441Z,101553.50
2022-07-30T00:27:06.466Z,101550.88
2022-07-30T00:30:25.503Z,101550.94
2022-07-30T00:33:27.787Z,101552.63
2022-07-30T00:36:43.971Z,101547.38
2022-07-30T00:39:45.307Z,101543.91
2022-07-30T00:43:02.449Z,101541.34
2022-07-30T00:46:15.435Z,101542.25
2022-07-30T00:49:19.710Z,101536.94
2022-07-30T00:52:31.882Z,101545.81
2022-07-30T00:55:33.507Z,101544.28
2022-07-30T00:58:45.301Z,101541.75
2022-07-30T01:01:51.810Z,101551.50
2022-07-30T01:05:08.139Z,101540.19
2022-07-30T01:08:12.353Z,101528.03
2022-07-30T01:11:21.362Z,101532.56
2022-07-30T01:14:26.334Z,101533.47
2022-07-30T01:17:34.144Z,101537.09
2022-07-30T01:20:42.314Z,101523.22
2022-07-30T01:23:57.034Z,101521.50
2022-07-30T01:27:02.930Z,101518.06
2022-07-30T01:30:16.917Z,101519.00
2022-07-30T01:33:24.721Z,101517.34
2022-07-30T01:36:49.572Z,101514.88
2022-07-30T01:39:58.124Z,101514.13
2022-07-30T01:43:14.420Z,101513.38
2022-07-30T01:46:20.183Z,101516.03
2022-07-30T01:49:33.156Z,101511.84
2022-07-30T01:52:52.386Z,101509.28
2022-07-30T01:56:02.208Z,101512.69
2022-07-30T01:59:07.298Z,101516.16
2022-07-30T02:02:20.722Z,101510.84
2022-07-30T02:05:34.324Z,101511.50
2022-07-30T02:08:53.917Z,101512.34
2022-07-30T02:12:27.958Z,101501.97
2022-07-30T02:15:50.277Z,101498.41
2022-07-30T02:19:09.915Z,101506.28
2022-07-30T02:22:28.616Z,101504.44
2022-07-30T02:25:42.798Z,101500.09
2022-07-30T02:32:22.979Z,101496.56
2022-07-30T02:35:37.814Z,101495.75
2022-07-30T02:38:47.918Z,101502.50
2022-07-30T02:42:05.095Z,101507.78
2022-07-30T02:45:08.259Z,101500.69
2022-07-30T02:48:34.513Z,101499.78
2022-07-30T02:51:46.080Z,101504.09
2022-07-30T02:54:54.724Z,101509.06
2022-07-30T02:57:59.044Z,101509.16
2022-07-30T03:01:04.318Z,101510.84
2022-07-30T03:04:13.877Z,101509.91
2022-07-30T03:07:20.822Z,101507.47
2022-07-30T03:10:31.650Z,101503.16
2022-07-30T03:13:37.086Z,101498.94
2022-07-30T03:16:54.670Z,101504.19
2022-07-30T03:20:01.687Z,101501.66
2022-07-30T03:23:34.150Z,101498.94
2022-07-30T03:30:32.133Z,101494.66
2022-07-30T03:53:16.298Z,101503.03
2022-07-30T03:56:31.896Z,101496.06
2022-07-30T04:03:16.938Z,101495.03
2022-07-30T04:06:22.210Z,101489.09
2022-07-30T04:09:50.646Z,101483.72
2022-07-30T04:13:12.626Z,101485.47
2022-07-30T04:16:39.337Z,101490.88
2022-07-30T04:20:13.250Z,101493.22
2022-07-30T04:23:19.326Z,101492.13
2022-07-30T04:26:40.914Z,101490.44
2022-07-30T04:29:52.759Z,101498.16
2022-07-30T04:33:15.714Z,101505.63
2022-07-30T04:36:28.229Z,101508.25
2022-07-30T04:39:31.568Z,101504.47
2022-07-30T04:42:51.529Z,101504.78
2022-07-30T04:45:56.343Z,101510.88
2022-07-30T04:49:25.719Z,101510.75
2022-07-30T04:56:00.900Z,101508.00
2022-07-30T04:59:19.263Z,101511.91
2022-07-30T05:02:23.566Z,101517.75
2022-07-30T05:05:40.186Z,101506.91
2022-07-30T05:08:57.835Z,101516.81
2022-07-30T05:12:28.338Z,101511.59
2022-07-30T05:16:34.128Z,101512.25
2022-07-30T05:19:40.626Z,101514.34
2022-07-30T05:22:57.936Z,101511.88
2022-07-30T05:30:00.532Z,101520.25
2022-07-30T05:33:20.439Z,101514.94
2022-07-30T05:40:50.246Z,101519.81
2022-07-30T05:44:05.556Z,101517.47
2022-07-30T05:47:08.948Z,101515.94
2022-07-30T05:50:26.043Z,101512.25
2022-07-30T05:53:39.876Z,101506.34
2022-07-30T05:56:54.340Z,101517.00
2022-07-30T06:00:08.072Z,101520.34
2022-07-30T06:03:16.611Z,101530.81
2022-07-30T06:06:27.311Z,101524.84
2022-07-30T06:09:36.697Z,101520.97
2022-07-30T06:13:09.299Z,101526.94
2022-07-30T06:16:24.399Z,101522.19
2022-07-30T06:19:50.194Z,101522.53
2022-07-30T06:23:51.489Z,101520.88
2022-07-30T06:46:03.437Z,101536.72
2022-07-30T07:30:26.395Z,101541.91
2022-07-30T08:40:26.637Z,101542.72
2022-07-30T08:52:16.670Z,101542.16
2022-07-30T08:59:03.946Z,101548.13
2022-07-30T09:02:31.059Z,101556.47
2022-07-30T09:05:31.232Z,101557.72
2022-07-30T09:08:58.566Z,101557.72
2022-07-30T09:12:04.181Z,101566.22
2022-07-30T09:15:18.788Z,101572.16
2022-07-30T09:18:48.305Z,101576.31
2022-07-30T10:19:39.943Z,101584.56
2022-07-30T16:23:14.924Z,101505.22
2022-07-30T19:58:29.689Z,101613.66
2022-07-30T20:10:41.972Z,101643.13
2022-07-30T21:06:22.678Z,101657.47
2022-07-30T21:09:52.029Z,101656.66
2022-07-30T21:13:32.430Z,101656.78
2022-07-30T21:16:55.850Z,101658.56
2022-07-30T21:20:27.854Z,101657.91
2022-07-30T21:23:41.340Z,101657.00
2022-07-30T21:30:24.270Z,101661.41
2022-07-30T21:33:37.287Z,101659.78
2022-07-30T21:36:42.254Z,101658.91
2022-07-30T21:39:58.762Z,101658.22
2022-07-30T21:43:03.411Z,101659.94
2022-07-30T21:46:24.923Z,101661.72
2022-07-30T21:49:56.845Z,101660.00
2022-07-30T21:57:01.290Z,101669.75
2022-07-30T22:01:16.345Z,101662.88
2022-07-30T22:05:23.906Z,101666.59
2022-07-30T22:09:45.270Z,101664.28
2022-07-30T22:13:22.361Z,101668.94
2022-07-30T22:19:57.746Z,101667.25
2022-07-30T22:23:09.847Z,101658.78
2022-07-30T22:26:09.953Z,101658.09
2022-07-30T22:29:19.221Z,101658.22
2022-07-30T22:32:20.339Z,101655.59
2022-07-30T22:36:06.138Z,101653.03
2022-07-30T22:39:31.947Z,101646.81
2022-07-30T22:43:07.491Z,101646.06
2022-07-30T22:46:14.925Z,101645.16
2022-07-30T22:50:17.368Z,101646.75
2022-07-30T22:54:10.639Z,101647.91
2022-07-30T23:00:27.965Z,101645.41
2022-07-30T23:03:45.346Z,101642.94
2022-07-30T23:06:53.362Z,101644.97
2022-07-30T23:10:04.889Z,101632.78
2022-07-30T23:13:24.225Z,101631.91
2022-07-30T23:16:37.023Z,101634.63
2022-07-30T23:23:02.979Z,101629.41
2022-07-30T23:26:05.298Z,101623.44
2022-07-30T23:29:14.667Z,101621.59
2022-07-30T23:32:20.464Z,101623.47
2022-07-30T23:35:28.204Z,101614.06
2022-07-30T23:38:28.996Z,101622.09
2022-07-30T23:41:48.283Z,101620.38
2022-07-30T23:44:50.851Z,101625.63
2022-07-30T23:48:02.499Z,101616.84
2022-07-30T23:58:00.544Z,101616.75
